Enter the Airport ICAO Code

Search by Airport or City

Current Weather

LPMA | Madeira Airport

Funchal, Madeira, Portugal

Last Update 9 Minutes Ago

Partly Cloudy Sky

Temperature of 21 ºC

Moderate Winds from North

Temperature

21 ºC

Dew Point Temperature

12 ºC

Relative Humidity

56.59 %

Wind Direction

North (020º, Ranging from 330º to 050º)

Wind Velocity

19 km/h (10 kt)

Gusts

None

Visibility

Greater than 10 Kilometers

Sea Level Pressure

1025 hPa (Hectopascals)

Layers of Clouds

30% to 60% of Sky Covered from 457 mts (1500 ft) Above Ground Level.

METAR LPMA 191130Z 02010KT 330V050 9999 SCT015 21/12 Q1025

Weather Forecast

LPMA | Madeira Airport

Funchal, Madeira, Portugal

Forecast valid for the next 24 Hours

From now on it is expected:

Partly Cloudy Sky

Moderate Winds from North

In 10 to 12 hours it is expected the begining of:

Light to Moderate Winds from Variable Directions

In 10 hours it is expected the begining of 14 hours with intermittent periods of:

Mostly Cloudy Sky

In 12 hours it is expected the begining of 9 hours with intermittent periods of:

Light Rain

In 13 to 16 hours it is expected the begining of:

Moderate Winds from SouthWest

Maximum Temperature

No Data

Minimum Temperature

No Data

TAF LPMA 191100Z 1912/2012 02012KT 9999 SCT015 BECMG 1922/1924 VRB05KT TEMPO 1922/2012 SCT015 BKN030 PROB30 TEMPO 2000/2009 6000 -RA BKN013 BECMG 2001/2004 22010KT